Time;durP1;ratioP1;P1;durP2;ratioP2;P2;SDS_P1;SDS_P2;PMS_P1;PMS_P2;Temp;Humidity;BMP_temperature;BMP_pressure;BME280_temperature;BME280_humidity;BME280_pressure;Samples;Min_cycle;Max_cycle;Signal;HPM_P1;HPM_P2
2023/05/02 05:00:12;;;;;;;;;11.00;9.33;;;;;13.14;70.98;-19562.38;6042292;22;44775;-87
2023/05/02 05:02:38;;;;;;;;;9.67;7.67;;;;;13.24;71.13;-19564.91;4919045;28;46600;-88
2023/05/02 05:05:03;;;;;;;;;6.67;6.67;;;;;13.08;71.26;-19560.88;4915877;28;46965;-88
2023/05/02 05:07:29;;;;;;;;;7.33;7.33;;;;;13.27;71.14;-19565.88;4914486;28;45668;-88
2023/05/02 05:09:54;;;;;;;;;9.67;8.00;;;;;13.33;71.06;-19567.22;4913616;28;46063;-87
2023/05/02 05:12:20;;;;;;;;;8.67;6.67;;;;;13.20;71.01;-19563.97;4915416;28;45531;-86
2023/05/02 05:14:45;;;;;;;;;9.00;6.67;;;;;13.27;71.33;-19565.72;4915211;28;54213;-87
2023/05/02 05:17:10;;;;;;;;;7.00;7.00;;;;;13.09;71.47;-19561.16;4915607;28;45480;-87
2023/05/02 05:19:35;;;;;;;;;7.00;7.00;;;;;13.50;71.51;-19571.78;4915812;28;45415;-87
2023/05/02 05:22:01;;;;;;;;;16.33;13.00;;;;;13.52;71.64;-19572.44;4914753;28;45468;-87
2023/05/02 05:24:26;;;;;;;;;8.33;7.33;;;;;13.30;71.53;-19566.53;4915090;28;46297;-87
2023/05/02 05:26:52;;;;;;;;;10.00;8.00;;;;;13.36;71.77;-19568.16;4915473;28;45480;-87
2023/05/02 05:29:18;;;;;;;;;8.67;7.67;;;;;13.59;71.62;-19574.06;4981273;28;45468;-87
2023/05/02 05:31:43;;;;;;;;;11.67;7.67;;;;;13.60;71.96;-19574.34;4915300;28;45883;-87
2023/05/02 05:34:08;;;;;;;;;12.33;11.00;;;;;13.51;71.44;-19572.06;4914405;28;45465;-87
2023/05/02 05:36:34;;;;;;;;;15.33;9.00;;;;;13.50;71.69;-19571.78;4915386;28;45427;-87
2023/05/02 05:39:00;;;;;;;;;9.67;9.67;;;;;13.53;71.85;-19572.59;4914993;28;45461;-87
2023/05/02 05:41:25;;;;;;;;;9.67;9.67;;;;;13.51;71.93;-19572.19;4915358;28;45668;-87
2023/05/02 05:43:51;;;;;;;;;10.67;10.33;;;;;13.64;71.92;-19575.53;4914388;28;46666;-87
2023/05/02 05:46:16;;;;;;;;;13.33;9.67;;;;;13.39;72.00;-19568.81;4915235;28;45511;-86
2023/05/02 05:48:41;;;;;;;;;10.33;7.67;;;;;13.61;72.06;-19574.59;4915045;28;46625;-87
2023/05/02 05:51:07;;;;;;;;;6.33;6.33;;;;;13.46;71.95;-19570.69;4913580;28;45401;-88
2023/05/02 05:53:32;;;;;;;;;11.33;10.00;;;;;13.66;71.75;-19575.94;4914633;28;45699;-87
2023/05/02 05:55:58;;;;;;;;;9.00;9.00;;;;;13.55;71.84;-19573.00;4917261;28;45965;-86
2023/05/02 05:58:23;;;;;;;;;14.00;8.67;;;;;13.51;72.03;-19572.19;4918245;28;45558;-87
2023/05/02 06:00:49;;;;;;;;;9.67;8.33;;;;;13.55;71.77;-19573.13;4916700;28;45573;-86
2023/05/02 06:03:15;;;;;;;;;10.33;10.33;;;;;13.50;71.92;-19571.78;4917838;28;46205;-86
2023/05/02 06:05:40;;;;;;;;;8.67;5.33;;;;;13.62;72.11;-19575.00;4916987;28;45772;-87
2023/05/02 06:08:05;;;;;;;;;8.00;8.00;;;;;13.64;72.09;-19575.53;4918182;28;45590;-87
2023/05/02 06:10:31;;;;;;;;;10.67;8.33;;;;;13.61;72.31;-19574.59;4916999;28;45328;-87
2023/05/02 06:12:57;;;;;;;;;7.67;7.67;;;;;13.51;72.39;-19572.06;4917575;28;45925;-86
2023/05/02 06:15:22;;;;;;;;;9.00;7.33;;;;;13.58;72.09;-19573.78;4917688;28;45412;-87
2023/05/02 06:17:50;;;;;;;;;9.00;8.00;;;;;13.75;72.27;-19578.22;4917279;28;45377;-87
2023/05/02 06:20:15;;;;;;;;;9.00;9.00;;;;;13.75;72.38;-19578.22;4917459;28;45524;-86
2023/05/02 06:22:41;;;;;;;;;5.33;5.33;;;;;13.77;72.05;-19578.78;4917655;28;50426;-87
2023/05/02 06:25:07;;;;;;;;;11.00;7.00;;;;;13.72;72.05;-19577.56;4917716;28;45740;-87
2023/05/02 06:27:33;;;;;;;;;6.33;6.33;;;;;13.50;72.23;-19571.91;4917132;28;45436;-87
2023/05/02 06:29:58;;;;;;;;;9.33;8.33;;;;;13.61;72.09;-19574.59;4917765;28;45506;-87
2023/05/02 06:32:24;;;;;;;;;11.00;7.67;;;;;13.58;72.15;-19573.78;4917432;28;46398;-86
2023/05/02 06:34:49;;;;;;;;;4.67;4.67;;;;;13.69;72.29;-19576.75;4916559;28;45444;-86
2023/05/02 06:37:14;;;;;;;;;8.00;6.67;;;;;13.60;72.18;-19574.34;4917182;28;56848;-86
2023/05/02 06:39:39;;;;;;;;;7.67;7.67;;;;;13.79;72.21;-19579.31;4917794;28;45512;-87
2023/05/02 06:42:05;;;;;;;;;7.67;7.00;;;;;13.80;72.01;-19579.56;4917350;28;45564;-87
2023/05/02 06:44:30;;;;;;;;;5.67;5.67;;;;;13.91;72.29;-19582.53;4916660;28;45900;-86
2023/05/02 06:46:55;;;;;;;;;4.33;3.00;;;;;13.91;72.23;-19582.66;4917325;28;45849;-86
2023/05/02 06:49:21;;;;;;;;;8.00;7.00;;;;;13.91;72.09;-19582.66;4913431;28;45461;-87
2023/05/02 06:51:47;;;;;;;;;7.33;7.00;;;;;13.92;72.11;-19582.94;4898489;29;46329;-87
2023/05/02 06:54:13;;;;;;;;;8.33;7.67;;;;;13.65;71.87;-19575.81;4902802;28;45421;-87
2023/05/02 06:56:39;;;;;;;;;8.33;7.33;;;;;13.95;71.88;-19583.59;4917512;28;45501;-87
2023/05/02 06:59:04;;;;;;;;;4.67;4.67;;;;;13.78;71.99;-19579.03;4917743;28;45447;-87
2023/05/02 07:01:30;;;;;;;;;9.00;8.00;;;;;14.03;72.23;-19585.75;4917075;28;45305;-87
2023/05/02 07:03:55;;;;;;;;;8.00;6.67;;;;;14.01;71.91;-19585.09;4915035;28;45497;-87
2023/05/02 07:06:21;;;;;;;;;5.00;5.00;;;;;13.89;71.88;-19582.13;4915734;28;55669;-86
2023/05/02 07:08:46;;;;;;;;;7.00;5.00;;;;;14.15;71.94;-19588.84;4917583;28;45646;-86
2023/05/02 07:11:11;;;;;;;;;5.33;3.00;;;;;14.13;72.19;-19588.31;4917060;28;46079;-87
2023/05/02 07:13:36;;;;;;;;;7.33;5.00;;;;;14.19;71.84;-19589.94;4916955;28;47836;-86
2023/05/02 07:16:02;;;;;;;;;8.00;7.33;;;;;13.99;71.83;-19584.69;4915140;28;55091;-87
2023/05/02 07:18:27;;;;;;;;;7.33;7.33;;;;;13.86;71.63;-19581.31;4905698;28;45503;-86
2023/05/02 07:20:53;;;;;;;;;6.67;5.00;;;;;14.27;71.46;-19592.06;4904838;28;46430;-87
2023/05/02 07:23:19;;;;;;;;;9.00;7.33;;;;;14.05;71.84;-19586.28;4915866;28;45807;-86
2023/05/02 07:25:46;;;;;;;;;5.00;5.00;;;;;14.28;71.73;-19592.34;4916980;28;45496;-87
2023/05/02 07:28:11;;;;;;;;;7.67;6.33;;;;;14.28;71.78;-19592.34;4917155;28;45591;-86
2023/05/02 07:30:37;;;;;;;;;6.33;5.67;;;;;14.28;71.89;-19592.34;4915384;28;50881;-87
2023/05/02 07:33:02;;;;;;;;;8.33;7.67;;;;;14.36;71.47;-19594.34;4916586;28;45447;-87
2023/05/02 07:35:28;;;;;;;;;8.33;7.33;;;;;14.47;71.27;-19597.16;4916627;28;45465;-86
2023/05/02 07:37:53;;;;;;;;;8.33;7.00;;;;;14.50;71.43;-19598.13;4915410;28;45460;-86
2023/05/02 07:40:18;;;;;;;;;9.67;8.33;;;;;14.57;71.61;-19599.88;4916513;28;46069;-86
2023/05/02 07:42:44;;;;;;;;;3.67;2.00;;;;;14.49;71.67;-19597.72;4915140;28;45512;-86
2023/05/02 07:45:09;;;;;;;;;11.00;11.00;;;;;14.60;71.45;-19600.66;4904758;28;45356;-86
2023/05/02 07:47:36;;;;;;;;;13.00;7.33;;;;;14.61;71.33;-19600.94;4898303;28;45463;-86
2023/05/02 07:50:05;;;;;;;;;8.33;7.33;;;;;14.26;71.54;-19591.81;4897433;29;46543;-86
2023/05/02 07:52:30;;;;;;;;;9.00;7.67;;;;;14.63;71.42;-19601.34;4897565;29;45515;-86
2023/05/02 07:54:55;;;;;;;;;8.67;7.00;;;;;14.62;71.57;-19601.22;4897688;29;45756;-86
2023/05/02 07:57:21;;;;;;;;;9.00;7.33;;;;;14.45;71.27;-19596.63;4909331;28;45434;-86
2023/05/02 07:59:46;;;;;;;;;8.33;8.33;;;;;14.61;71.35;-19600.94;4915757;28;57785;-85
2023/05/02 08:02:12;;;;;;;;;7.33;7.33;;;;;14.62;71.18;-19601.06;4907338;28;45494;-86
2023/05/02 08:04:38;;;;;;;;;12.00;9.00;;;;;14.66;71.78;-19602.28;4902971;28;45523;-86
2023/05/02 08:07:04;;;;;;;;;8.00;7.67;;;;;14.49;71.75;-19597.84;4913099;28;45559;-86
2023/05/02 08:09:30;;;;;;;;;8.33;8.33;;;;;14.54;71.62;-19599.06;4916186;28;45724;-86
2023/05/02 08:11:55;;;;;;;;;10.33;8.33;;;;;14.68;71.86;-19602.81;4913276;28;45576;-86
2023/05/02 08:14:21;;;;;;;;;7.67;7.33;;;;;14.45;71.51;-19596.63;4897438;29;45638;-86
2023/05/02 08:16:46;;;;;;;;;6.00;5.67;;;;;14.98;71.48;-19610.59;4897058;29;45492;-86
2023/05/02 08:19:11;;;;;;;;;7.33;7.33;;;;;14.97;71.44;-19610.47;4896920;28;47604;-87
2023/05/02 08:21:37;;;;;;;;;8.67;8.00;;;;;14.93;71.22;-19609.41;4897050;29;45467;-87
2023/05/02 08:24:02;;;;;;;;;7.33;7.00;;;;;15.22;71.28;-19616.78;4900097;28;45755;-86
2023/05/02 08:26:28;;;;;;;;;7.33;7.33;;;;;14.55;71.17;-19599.47;4916503;28;45592;-86
2023/05/02 08:28:54;;;;;;;;;13.00;9.33;;;;;15.35;71.21;-19620.41;4916189;28;47070;-86
2023/05/02 08:31:20;;;;;;;;;7.00;7.00;;;;;15.40;71.27;-19621.59;4915771;28;45454;-86
2023/05/02 08:33:46;;;;;;;;;10.00;9.00;;;;;15.47;71.12;-19623.47;4915386;28;45917;-86
2023/05/02 08:36:16;;;;;;;;;9.67;7.67;;;;;15.56;70.92;-19625.91;4909112;28;45517;-86
2023/05/02 08:38:42;;;;;;;;;9.67;9.67;;;;;15.67;70.86;-19628.59;4915724;28;46288;-86
2023/05/02 08:41:16;;;;;;;;;8.00;7.00;;;;;15.77;71.27;-19631.41;4915639;28;45409;-86
2023/05/02 08:43:42;;;;;;;;;11.67;9.33;;;;;15.69;71.04;-19629.13;4916342;28;45480;-86
2023/05/02 08:46:10;;;;;;;;;6.00;5.00;;;;;15.83;71.12;-19632.88;4916096;28;45538;-86
2023/05/02 08:48:38;;;;;;;;;11.33;10.00;;;;;16.18;70.97;-19642.00;4915987;28;46459;-86
2023/05/02 08:51:07;;;;;;;;;8.33;7.67;;;;;16.38;70.47;-19647.34;4915921;28;45577;-86
2023/05/02 08:53:37;;;;;;;;;10.33;10.33;;;;;16.61;70.67;-19653.38;4915926;28;45564;-86
2023/05/02 08:56:03;;;;;;;;;7.00;6.00;;;;;15.99;70.67;-19637.16;4916138;28;45494;-86
2023/05/02 08:58:31;;;;;;;;;5.33;5.33;;;;;16.71;70.60;-19655.91;4915703;28;45560;-86
2023/05/02 09:01:04;;;;;;;;;8.00;6.33;;;;;17.34;70.48;-19672.41;4915126;28;45510;-86
2023/05/02 09:03:31;;;;;;;;;6.00;6.00;;;;;17.54;70.03;-19677.47;4915914;28;45392;-86
2023/05/02 09:06:14;;;;;;;;;11.00;9.33;;;;;17.95;70.35;-19688.31;4916091;28;45440;-86
2023/05/02 09:08:41;;;;;;;;;7.00;7.00;;;;;18.29;69.87;-19697.28;4915511;28;45532;-86
2023/05/02 09:11:08;;;;;;;;;6.00;6.00;;;;;18.41;69.38;-19700.22;4915520;28;45410;-87
2023/05/02 09:13:41;;;;;;;;;10.33;9.33;;;;;19.00;68.95;-19715.59;4915664;28;45510;-87
2023/05/02 09:16:09;;;;;;;;;10.00;7.00;;;;;19.03;68.41;-19716.38;4915627;28;45703;-86
2023/05/02 09:18:48;;;;;;;;;6.67;5.00;;;;;19.55;67.77;-19730.13;4915461;28;46278;-87
2023/05/02 09:21:18;;;;;;;;;4.33;4.33;;;;;20.06;67.31;-19743.34;4915418;28;45954;-87
2023/05/02 09:23:45;;;;;;;;;7.00;7.00;;;;;20.40;66.85;-19752.28;4915436;28;45445;-86
2023/05/02 09:26:15;;;;;;;;;6.67;6.67;;;;;20.81;64.84;-19762.94;4915714;28;45557;-87
2023/05/02 09:28:46;;;;;;;;;5.50;5.50;;;;;21.26;65.30;-19774.66;4915338;28;47081;-87
2023/05/02 09:31:14;;;;;;;;;14.00;13.67;;;;;21.66;63.35;-19784.91;4918264;28;45531;-88
2023/05/02 09:33:40;;;;;;;;;6.00;6.00;;;;;22.06;63.47;-19795.44;4918476;28;45526;-88
2023/05/02 09:36:06;;;;;;;;;6.67;6.67;;;;;22.49;62.46;-19806.47;4918533;28;45526;-87
2023/05/02 09:38:32;;;;;;;;;10.00;6.00;;;;;22.90;61.91;-19817.22;4918164;28;46407;-87
2023/05/02 09:40:59;;;;;;;;;6.25;6.25;;;;;23.20;60.65;-19824.94;5000337;28;45579;-87
2023/05/02 09:43:25;;;;;;;;;7.25;6.00;;;;;23.59;59.84;-19835.16;4917963;28;45373;-87
2023/05/02 09:46:07;;;;;;;;;5.00;5.00;;;;;24.27;59.45;-19852.53;4918457;28;45454;-87
2023/05/02 09:48:51;;;;;;;;;7.75;6.00;;;;;24.69;58.69;-19863.41;4918054;28;47372;-88
2023/05/02 09:51:18;;;;;;;;;6.25;6.25;;;;;25.25;56.62;-19878.13;4917923;28;45881;-89
2023/05/02 09:53:44;;;;;;;;;6.25;5.50;;;;;25.59;56.54;-19886.72;4918036;28;45447;-89
2023/05/02 09:56:10;;;;;;;;;8.00;6.75;;;;;26.06;55.31;-19899.03;4918545;28;45408;-89
2023/05/02 09:58:35;;;;;;;;;4.50;4.50;;;;;26.35;54.61;-19906.31;4917622;28;46620;-87
2023/05/02 10:01:01;;;;;;;;;7.33;7.33;;;;;26.43;53.87;-19906.44;4917566;28;45737;-88
2023/05/02 10:03:28;;;;;;;;;9.00;7.75;;;;;26.88;53.66;-19918.22;4917926;28;45500;-87
2023/05/02 10:05:54;;;;;;;;;4.50;4.50;;;;;27.32;52.38;-18230.22;4918236;28;45441;-87
2023/05/02 10:08:29;;;;;;;;;6.00;5.00;;;;;27.24;52.65;-18568.19;4917668;28;46231;-87
2023/05/02 10:10:56;;;;;;;;;5.00;5.00;;;;;27.79;51.01;-15859.16;4999752;28;45597;-87
2023/05/02 10:13:31;;;;;;;;;4.25;3.25;;;;;27.42;50.06;-13469.97;4917512;28;45487;-88
2023/05/02 10:16:02;;;;;;;;;4.00;4.00;;;;;28.12;49.79;-12117.50;4918108;28;45602;-90
2023/05/02 10:18:51;;;;;;;;;5.00;5.00;;;;;28.26;49.02;-10414.16;4983602;28;45769;-89
2023/05/02 10:21:23;;;;;;;;;4.00;4.00;;;;;28.37;48.43;-5977.50;4917742;28;45756;-88
2023/05/02 10:23:52;;;;;;;;;5.25;5.00;;;;;28.16;47.46;-1193.22;4918069;28;45722;-89
2023/05/02 10:26:20;;;;;;;;;4.25;4.25;;;;;28.35;48.19;-166.41;4918001;28;45340;-90
2023/05/02 10:28:45;;;;;;;;;4.00;4.00;;;;;28.44;48.67;-1876.22;4983436;28;47938;-90
2023/05/02 10:31:13;;;;;;;;;7.00;7.00;;;;;28.54;48.45;176.81;4917698;28;45405;-90
2023/05/02 10:33:39;;;;;;;;;10.50;10.50;;;;;28.54;45.79;7369.94;4917871;28;45511;-89
2023/05/02 10:36:07;;;;;;;;;5.00;5.00;;;;;28.30;47.09;6337.75;4917880;28;45546;-88
2023/05/02 10:38:32;;;;;;;;;4.25;4.25;;;;;28.54;46.31;15279.78;4917442;28;45971;-88
2023/05/02 10:41:02;;;;;;;;;6.00;6.00;;;;;28.31;46.04;17258.72;4916532;28;45501;-89
2023/05/02 10:43:32;;;;;;;;;10.75;7.75;;;;;28.54;45.57;24585.66;4917152;28;45574;-89
2023/05/02 10:45:58;;;;;;;;;5.00;5.00;;;;;28.52;46.32;22699.06;4918014;28;45800;-89
2023/05/02 10:48:25;;;;;;;;;8.00;7.00;;;;;28.55;46.14;23816.69;4917190;28;47515;-89
2023/05/02 10:50:56;;;;;;;;;9.33;9.33;;;;;28.37;45.58;29360.41;4917575;28;45535;-89
2023/05/02 10:53:43;;;;;;;;;8.00;6.67;;;;;28.33;44.86;31963.38;4920986;28;45357;-89
2023/05/02 10:56:21;;;;;;;;;8.00;7.00;;;;;28.38;44.93;37696.97;4918559;28;45408;-89
2023/05/02 10:58:52;;;;;;;;;8.25;6.00;;;;;28.26;45.65;37281.19;4917385;28;45804;-89
2023/05/02 11:01:32;;;;;;;;;8.33;8.33;;;;;28.14;44.55;40452.81;4916931;28;45466;-88
2023/05/02 11:04:09;;;;;;;;;8.33;8.33;;;;;27.83;45.15;41610.34;4917292;28;45460;-88
2023/05/02 11:06:55;;;;;;;;;5.00;5.00;;;;;27.78;44.37;42033.13;4917670;28;45412;-89
2023/05/02 11:09:20;;;;;;;;;6.00;6.00;;;;;27.70;45.72;42232.69;4920256;28;45692;-89
2023/05/02 11:11:47;;;;;;;;;8.00;7.00;;;;;27.53;45.88;41354.38;4916669;28;45699;-89
2023/05/02 11:14:38;;;;;;;;;6.67;6.67;;;;;27.46;44.93;43342.75;4917130;28;45404;-89
2023/05/02 11:17:03;;;;;;;;;7.50;6.75;;;;;27.50;44.08;48714.84;4920102;28;45527;-87
2023/05/02 11:20:10;;;;;;;;;3.50;3.50;;;;;27.47;44.79;47502.19;4916890;28;45475;-88
2023/05/02 11:22:35;;;;;;;;;5.25;3.25;;;;;27.40;45.39;46483.13;4916786;28;45744;-87
2023/05/02 11:25:01;;;;;;;;;4.00;4.00;;;;;27.12;45.33;46917.78;4917869;28;45457;-86
2023/05/02 11:27:32;;;;;;;;;5.33;5.33;;;;;27.39;45.53;47060.66;4910187;28;45516;-87
2023/05/02 11:30:07;;;;;;;;;5.00;5.00;;;;;27.26;45.48;47007.19;4896935;28;47053;-87
2023/05/02 11:32:48;;;;;;;;;7.25;4.50;;;;;27.47;45.54;46099.91;4897272;29;45483;-88
2023/05/02 11:35:15;;;;;;;;;5.00;5.00;;;;;27.53;45.68;46107.84;4897341;29;45374;-88
2023/05/02 11:37:41;;;;;;;;;4.75;4.75;;;;;27.19;45.93;45837.44;4897701;29;45607;-87
2023/05/02 11:40:11;;;;;;;;;5.00;5.00;;;;;27.64;45.41;46264.91;4896899;28;45831;-87
2023/05/02 11:42:36;;;;;;;;;4.00;4.00;;;;;27.76;45.86;44667.22;4978775;28;45494;-88
2023/05/02 11:45:02;;;;;;;;;3.25;3.25;;;;;27.81;45.29;46335.00;4897359;29;45521;-88
2023/05/02 11:47:31;;;;;;;;;6.50;5.50;;;;;27.82;44.38;49365.84;4897501;29;45428;-88
2023/05/02 11:49:57;;;;;;;;;4.25;4.25;;;;;27.94;43.84;51218.66;4910675;28;46550;-89
2023/05/02 11:52:23;;;;;;;;;4.75;4.75;;;;;27.99;43.61;52354.97;4916268;28;45346;-88
2023/05/02 11:54:52;;;;;;;;;4.00;3.75;;;;;28.04;44.38;51425.16;4915809;28;45476;-89
2023/05/02 11:57:17;;;;;;;;;5.25;5.25;;;;;28.14;44.05;52042.78;4916597;28;45407;-87
2023/05/02 11:59:54;;;;;;;;;4.25;4.00;;;;;28.04;42.34;53620.44;4915894;28;47354;-88
2023/05/02 12:02:35;;;;;;;;;5.50;5.50;;;;;28.52;42.67;56616.81;4915752;28;45467;-88
2023/05/02 12:05:01;;;;;;;;;4.50;4.50;;;;;28.67;42.77;57700.53;4916359;28;45453;-87
2023/05/02 12:07:53;;;;;;;;;7.50;5.25;;;;;28.78;41.34;61189.91;4916164;28;45852;-88
2023/05/02 12:10:18;;;;;;;;;3.00;3.00;;;;;29.08;42.68;59706.94;4916263;28;46454;-87
2023/05/02 12:12:44;;;;;;;;;3.25;3.25;;;;;29.23;42.88;59787.06;4916034;28;45440;-88
2023/05/02 12:15:11;;;;;;;;;4.00;4.00;;;;;29.45;41.94;62096.09;4916066;28;45856;-89
2023/05/02 12:17:40;;;;;;;;;4.25;4.25;;;;;29.68;42.90;60645.63;4916502;28;45463;-88
2023/05/02 12:20:07;;;;;;;;;3.50;3.00;;;;;29.82;42.41;61663.75;4915669;28;46178;-89
2023/05/02 12:22:33;;;;;;;;;4.25;4.25;;;;;29.97;41.46;64650.47;4915950;28;45551;-88
2023/05/02 12:24:59;;;;;;;;;3.00;3.00;;;;;30.05;42.07;64544.38;4915658;28;45646;-88
2023/05/02 12:27:26;;;;;;;;;3.00;3.00;;;;;30.28;41.38;65896.75;4915667;28;45565;-88
2023/05/02 12:29:58;;;;;;;;;3.00;3.00;;;;;30.10;39.82;68608.78;4915291;28;46291;-89
2023/05/02 12:32:31;;;;;;;;;4.50;4.50;;;;;30.27;39.39;73547.75;4915692;28;45539;-88
2023/05/02 12:34:57;;;;;;;;;5.00;4.00;;;;;30.31;39.76;73694.16;4916022;28;45587;-88
2023/05/02 12:37:24;;;;;;;;;3.00;3.00;;;;;30.38;40.39;73522.03;4915767;28;45481;-89
2023/05/02 12:39:50;;;;;;;;;3.25;3.25;;;;;30.42;40.03;74040.72;4915397;28;45837;-89
2023/05/02 12:42:16;;;;;;;;;3.25;3.25;;;;;30.45;39.87;74265.84;4915564;28;45444;-88
2023/05/02 12:44:46;;;;;;;;;4.00;4.00;;;;;30.42;39.08;74811.94;4915766;28;45427;-88
2023/05/02 12:47:14;;;;;;;;;3.50;3.50;;;;;30.20;38.77;75890.44;4916036;28;45375;-89
2023/05/02 12:49:48;;;;;;;;;2.75;2.75;;;;;29.90;39.15;76057.16;4915888;28;46248;-86
2023/05/02 12:52:14;;;;;;;;;4.25;4.25;;;;;29.66;39.00;76284.66;4915238;28;45950;-84
2023/05/02 12:54:39;;;;;;;;;5.00;3.25;;;;;29.45;38.82;76227.97;4916011;28;45503;-88
2023/05/02 12:57:05;;;;;;;;;2.75;2.75;;;;;29.19;39.22;76101.41;4916178;28;45473;-86
2023/05/02 12:59:31;;;;;;;;;6.00;4.75;;;;;28.89;38.87;75943.13;4915190;28;45550;-87
2023/05/02 13:01:57;;;;;;;;;4.00;3.00;;;;;28.42;39.35;75912.06;4915459;28;45525;-93
2023/05/02 13:04:40;;;;;;;;;5.50;5.50;;;;;28.12;37.66;75015.31;4914505;28;45525;-87
2023/05/02 13:07:06;;;;;;;;;4.00;2.50;;;;;27.84;39.32;75427.16;4980282;28;45578;-87
2023/05/02 13:09:32;;;;;;;;;2.50;2.50;;;;;27.52;40.11;75051.91;4915136;28;45897;-86
2023/05/02 13:12:02;;;;;;;;;1.25;1.25;;;;;27.08;40.41;74817.31;4915261;28;45569;-87
2023/05/02 13:14:27;;;;;;;;;1.75;1.75;;;;;26.93;40.10;74537.88;4915327;28;45500;-89
2023/05/02 13:16:54;;;;;;;;;2.25;2.00;;;;;26.56;40.52;74253.00;4915466;28;45620;-86
2023/05/02 13:19:20;;;;;;;;;2.00;2.00;;;;;26.37;40.89;74120.88;4914958;28;47036;-87
2023/05/02 13:21:45;;;;;;;;;3.00;2.00;;;;;26.23;41.09;73866.97;4914766;28;45417;-88
2023/05/02 13:24:12;;;;;;;;;2.00;2.00;;;;;25.88;41.62;73458.41;4915313;28;45452;-88
2023/05/02 13:26:37;;;;;;;;;2.00;2.00;;;;;25.79;41.70;73346.72;4915303;28;45440;-87
2023/05/02 13:29:03;;;;;;;;;3.00;3.00;;;;;25.75;41.61;73206.09;4914865;28;46269;-87
2023/05/02 13:31:28;;;;;;;;;2.25;2.25;;;;;25.73;41.67;73124.97;4914968;28;45697;-88
2023/05/02 13:33:53;;;;;;;;;2.00;2.00;;;;;25.33;41.58;72965.00;4980956;28;45443;-89
2023/05/02 13:36:19;;;;;;;;;1.75;0.50;;;;;25.53;42.30;72848.44;4915187;28;45356;-87
2023/05/02 13:38:44;;;;;;;;;1.75;1.75;;;;;25.23;42.68;72663.25;4914849;28;46042;-88
2023/05/02 13:41:10;;;;;;;;;2.75;2.75;;;;;25.33;42.36;72560.66;4914622;28;45491;-86
2023/05/02 13:43:35;;;;;;;;;3.00;3.00;;;;;25.22;42.34;72385.06;4914929;28;45586;-86
2023/05/02 13:46:00;;;;;;;;;3.25;2.00;;;;;25.13;42.64;72292.63;4915302;28;45475;-86
2023/05/02 13:48:26;;;;;;;;;1.25;1.25;;;;;24.70;42.50;72232.44;4912687;28;46039;-88
2023/05/02 13:50:51;;;;;;;;;2.33;2.00;;;;;24.89;42.42;72150.41;4896798;28;50185;-88
2023/05/02 13:53:16;;;;;;;;;1.50;1.50;;;;;24.75;42.82;72047.09;4914634;28;45855;-88
2023/05/02 13:55:41;;;;;;;;;1.00;1.00;;;;;24.69;43.34;71871.88;4914835;28;45539;-86
2023/05/02 13:58:07;;;;;;;;;2.00;2.00;;;;;24.59;42.96;71716.16;4980449;28;46936;-88
2023/05/02 14:00:33;;;;;;;;;1.75;1.75;;;;;24.31;43.05;71628.19;4914407;28;45456;-87
2023/05/02 14:02:58;;;;;;;;;3.00;2.00;;;;;24.31;43.50;71550.38;4980547;28;45511;-88
2023/05/02 14:05:24;;;;;;;;;3.00;2.00;;;;;24.09;42.65;71440.19;4914416;28;45659;-88
2023/05/02 14:07:49;;;;;;;;;3.00;2.00;;;;;23.91;43.35;71264.66;4914349;28;46551;-87
2023/05/02 14:10:14;;;;;;;;;1.00;1.00;;;;;24.10;43.71;71206.19;4914217;28;45517;-88
2023/05/02 14:12:40;;;;;;;;;2.75;2.00;;;;;23.99;43.24;71227.88;4914712;28;45479;-87
2023/05/02 14:15:06;;;;;;;;;1.00;1.00;;;;;24.00;43.19;71113.50;4914648;28;45746;-88
2023/05/02 14:17:32;;;;;;;;;1.00;1.00;;;;;23.97;43.17;71077.41;4916780;28;45653;-88
2023/05/02 14:19:57;;;;;;;;;3.50;2.00;;;;;23.76;43.34;71063.22;4982955;28;45720;-88
2023/05/02 14:22:23;;;;;;;;;3.75;2.00;;;;;23.88;43.36;71033.38;4985436;28;45427;-85
2023/05/02 14:24:51;;;;;;;;;1.75;1.75;;;;;23.20;43.12;70822.69;4925945;28;45344;-86
2023/05/02 14:27:17;;;;;;;;;1.25;1.25;;;;;23.57;43.63;70781.31;4918621;28;46209;-86
2023/05/02 14:29:46;;;;;;;;;2.00;2.00;;;;;23.60;43.46;70701.25;4921684;28;45462;-85
2023/05/02 14:32:13;;;;;;;;;1.00;1.00;;;;;23.68;44.23;70675.22;4917251;28;45386;-85
2023/05/02 14:34:38;;;;;;;;;4.25;1.00;;;;;23.63;43.77;70642.16;4983079;28;45474;-85
2023/05/02 14:37:04;;;;;;;;;2.00;2.00;;;;;23.34;43.84;70648.69;4983105;28;48259;-86
2023/05/02 14:39:29;;;;;;;;;1.25;1.25;;;;;23.38;43.31;70650.81;4916995;28;45761;-86
2023/05/02 14:41:54;;;;;;;;;2.00;2.00;;;;;23.43;43.57;70515.88;4917276;28;45780;-86
2023/05/02 14:44:21;;;;;;;;;1.75;1.75;;;;;23.28;44.24;70487.53;4920381;28;45622;-86
2023/05/02 14:46:46;;;;;;;;;4.00;2.75;;;;;22.90;43.93;70496.66;4917792;28;45529;-89
2023/05/02 14:49:11;;;;;;;;;1.00;1.00;;;;;23.41;43.29;70405.44;4916752;28;45408;-88
2023/05/02 14:51:38;;;;;;;;;2.75;2.75;;;;;23.02;43.66;70453.94;4916592;28;50456;-89
2023/05/02 14:54:04;;;;;;;;;3.50;2.00;;;;;23.27;43.92;70467.41;4917446;28;45540;-89
2023/05/02 14:56:29;;;;;;;;;1.00;1.00;;;;;22.93;43.58;70322.22;4916785;28;46760;-89
2023/05/02 14:58:54;;;;;;;;;1.75;1.25;;;;;23.18;44.25;70305.97;4982545;28;45543;-90
2023/05/02 15:01:21;;;;;;;;;1.25;1.25;;;;;22.91;43.99;70230.19;4917660;28;45512;-88
2023/05/02 15:03:48;;;;;;;;;1.00;1.00;;;;;23.13;44.60;70286.44;4917016;28;45775;-87
2023/05/02 15:06:14;;;;;;;;;2.00;2.00;;;;;22.89;44.34;70061.13;4916635;28;46519;-87
2023/05/02 15:08:40;;;;;;;;;2.00;2.00;;;;;22.92;44.25;70097.13;4916836;28;45594;-86
2023/05/02 15:11:06;;;;;;;;;1.75;1.75;;;;;23.02;43.98;70057.31;4916583;28;45525;-87
2023/05/02 15:13:31;;;;;;;;;1.00;1.00;;;;;22.91;44.30;70087.81;4917005;28;45601;-85
2023/05/02 15:15:57;;;;;;;;;1.00;1.00;;;;;22.68;44.08;69995.38;4916437;28;53555;-87
2023/05/02 15:18:22;;;;;;;;;1.00;1.00;;;;;23.00;44.40;70021.94;4916307;28;45547;-87
2023/05/02 15:20:48;;;;;;;;;2.50;2.50;;;;;22.76;44.38;69978.06;4982403;28;45957;-86
2023/05/02 15:23:13;;;;;;;;;3.50;2.00;;;;;22.71;43.99;70013.09;4916413;28;45767;-85
2023/05/02 15:25:38;;;;;;;;;2.00;2.00;;;;;22.76;43.72;69903.13;4916552;28;46404;-86
2023/05/02 15:28:04;;;;;;;;;3.00;1.75;;;;;22.71;44.42;69934.25;4914289;28;46029;-88
2023/05/02 15:30:29;;;;;;;;;3.50;2.50;;;;;22.67;44.32;69962.41;4912318;28;45801;-87
2023/05/02 15:32:54;;;;;;;;;0.00;0.00;;;;;22.46;44.41;69900.03;4941656;28;45986;-87
2023/05/02 15:35:20;;;;;;;;;1.50;1.00;;;;;22.31;44.89;69799.06;4916108;28;46120;-87
2023/05/02 15:37:45;;;;;;;;;2.00;2.00;;;;;22.53;44.84;69827.56;4982052;28;46085;-85
2023/05/02 15:40:11;;;;;;;;;2.00;2.00;;;;;22.52;44.76;69750.28;4916319;28;45701;-85
2023/05/02 15:42:36;;;;;;;;;2.00;1.25;;;;;22.25;44.65;69586.47;4916487;28;45588;-86
2023/05/02 15:45:02;;;;;;;;;4.00;2.75;;;;;22.18;44.53;69557.13;4916075;28;46281;-85
2023/05/02 15:47:28;;;;;;;;;3.25;2.50;;;;;22.44;44.98;69517.59;4915952;28;45542;-87
2023/05/02 15:49:53;;;;;;;;;2.75;1.75;;;;;22.36;44.51;69504.72;4916301;28;45829;-86
2023/05/02 15:52:19;;;;;;;;;2.00;2.00;;;;;22.30;44.86;69452.34;4912663;28;45564;-88
2023/05/02 15:54:45;;;;;;;;;1.00;1.00;;;;;22.38;45.21;69385.84;4901147;28;45926;-87
2023/05/02 15:57:13;;;;;;;;;2.00;2.00;;;;;22.08;44.48;69483.78;4955395;28;45600;-87
2023/05/02 15:59:38;;;;;;;;;1.00;1.00;;;;;22.10;44.53;69534.69;4975806;28;45512;-88
2023/05/02 16:02:04;;;;;;;;;2.25;1.25;;;;;22.11;44.20;69400.59;4904494;28;45531;-88
2023/05/02 16:04:30;;;;;;;;;2.33;2.00;;;;;22.05;44.47;69409.56;4896775;28;45488;-89
2023/05/02 16:06:56;;;;;;;;;1.00;1.00;;;;;22.06;44.44;69402.69;4911623;28;45459;-88
2023/05/02 16:09:21;;;;;;;;;1.00;1.00;;;;;22.14;44.93;69474.78;4917230;28;45396;-88
2023/05/02 16:11:47;;;;;;;;;2.00;2.00;;;;;22.00;44.77;69439.22;4916966;28;45755;-87
2023/05/02 16:14:13;;;;;;;;;1.00;1.00;;;;;21.93;45.17;69364.13;4913617;28;46186;-86
2023/05/02 16:16:38;;;;;;;;;1.00;1.00;;;;;21.95;45.25;69306.66;4901743;28;45394;-87
2023/05/02 16:19:03;;;;;;;;;1.00;1.00;;;;;21.87;44.90;69338.13;4897423;28;49774;-86
2023/05/02 16:21:29;;;;;;;;;2.50;0.75;;;;;21.87;45.57;69213.66;4896952;29;45654;-86
2023/05/02 16:23:55;;;;;;;;;1.00;1.00;;;;;21.78;45.53;69168.53;4895996;28;46849;-86
2023/05/02 16:26:20;;;;;;;;;1.00;1.00;;;;;21.88;45.09;69136.75;4897702;28;45733;-86
2023/05/02 16:28:46;;;;;;;;;2.00;2.00;;;;;21.86;44.94;69102.66;4896936;29;45601;-87